createdAt,value
2019-02-20T00:00:10.457Z,205.18
2019-02-20T00:02:38.966Z,212.72
2019-02-20T00:05:07.640Z,211.32
2019-02-20T00:07:36.334Z,206.45
2019-02-20T00:10:04.987Z,209.05
2019-02-20T00:12:33.638Z,216.85
2019-02-20T00:15:02.337Z,211.62
2019-02-20T00:17:30.897Z,201.20
2019-02-20T00:19:59.555Z,201.12
2019-02-20T00:22:28.271Z,211.47
2019-02-20T00:24:56.910Z,207.37
2019-02-20T00:27:25.580Z,202.10
2019-02-20T00:29:54.215Z,205.03
2019-02-20T00:32:22.883Z,209.87
2019-02-20T00:34:51.450Z,210.17
2019-02-20T00:37:20.169Z,202.78
2019-02-20T00:39:48.736Z,203.75
2019-02-20T00:42:17.319Z,210.40
2019-02-20T00:44:48.084Z,205.15
2019-02-20T00:47:18.321Z,198.78
2019-02-20T00:49:46.978Z,196.90
2019-02-20T00:52:23.391Z,200.68
2019-02-20T00:54:52.044Z,180.80
2019-02-20T00:57:20.708Z,196.95
2019-02-20T00:59:49.438Z,181.72
2019-02-20T01:02:18.001Z,182.65
2019-02-20T01:04:46.654Z,190.55
2019-02-20T01:07:15.362Z,200.05
2019-02-20T01:09:44.001Z,185.07
2019-02-20T01:12:12.770Z,172.80
2019-02-20T01:14:41.472Z,179.78
2019-02-20T01:17:10.140Z,178.97
2019-02-20T01:19:38.758Z,166.57
2019-02-20T01:22:07.386Z,180.03
2019-02-20T01:24:36.018Z,171.85
2019-02-20T01:27:04.657Z,169.47
2019-02-20T01:29:33.291Z,167.40
2019-02-20T01:32:01.956Z,159.80
2019-02-20T01:34:30.598Z,168.02
2019-02-20T01:36:59.295Z,156.95
2019-02-20T01:39:27.942Z,152.90
2019-02-20T01:41:56.593Z,176.78
2019-02-20T01:44:25.291Z,174.68
2019-02-20T01:46:54.531Z,170.75
2019-02-20T01:49:23.186Z,150.70
2019-02-20T01:51:51.872Z,150.80
2019-02-20T01:54:20.465Z,165.68
2019-02-20T01:56:49.124Z,166.40
2019-02-20T01:59:17.856Z,151.68
2019-02-20T02:01:46.414Z,153.68
2019-02-20T02:04:14.977Z,152.30
2019-02-20T02:06:43.695Z,150.85
2019-02-20T02:09:12.390Z,146.72
2019-02-20T02:11:41.027Z,134.78
2019-02-20T02:14:09.740Z,151.22
2019-02-20T02:16:38.397Z,133.52
2019-02-20T02:19:07.060Z,145.95
2019-02-20T02:21:35.773Z,142.72
2019-02-20T02:24:04.423Z,127.45
2019-02-20T02:26:33.082Z,138.82
2019-02-20T02:29:01.794Z,161.97
2019-02-20T02:31:30.446Z,154.12
2019-02-20T02:33:59.084Z,147.75
2019-02-20T02:36:27.798Z,153.78
2019-02-20T02:38:56.361Z,156.20
2019-02-20T02:41:25.014Z,160.72
2019-02-20T02:43:53.705Z,150.65
2019-02-20T02:46:22.374Z,134.07
2019-02-20T02:48:51.969Z,132.12
2019-02-20T02:51:20.686Z,133.07
2019-02-20T02:53:49.314Z,138.20
2019-02-20T02:56:17.894Z,129.35
2019-02-20T02:58:46.593Z,130.93
2019-02-20T03:01:15.263Z,131.80
2019-02-20T03:03:43.903Z,137.28
2019-02-20T03:06:12.548Z,132.03
2019-02-20T03:08:41.198Z,134.65
2019-02-20T03:11:09.842Z,138.22
2019-02-20T03:13:38.550Z,134.72
2019-02-20T03:16:07.199Z,139.68
2019-02-20T03:18:35.846Z,131.90
2019-02-20T03:21:04.475Z,129.95
2019-02-20T03:23:40.035Z,133.03
2019-02-20T03:26:03.438Z,139.03
2019-02-20T03:28:32.132Z,136.82
2019-02-20T03:31:00.808Z,136.90
2019-02-20T03:33:29.426Z,131.55
2019-02-20T03:35:58.151Z,132.63
2019-02-20T03:38:30.348Z,133.63
2019-02-20T03:40:57.097Z,126.65
2019-02-20T03:43:25.824Z,129.07
2019-02-20T03:45:54.456Z,131.15
2019-02-20T03:48:23.035Z,125.87
2019-02-20T03:50:51.753Z,128.32
2019-02-20T03:53:20.390Z,119.35
2019-02-20T03:55:48.975Z,119.28
2019-02-20T03:58:17.688Z,117.97
2019-02-20T04:00:46.266Z,122.40
2019-02-20T04:03:14.923Z,115.45
2019-02-20T04:05:43.572Z,111.20
2019-02-20T04:08:12.208Z,111.10
2019-02-20T04:10:40.780Z,109.78
2019-02-20T04:13:09.488Z,107.35
2019-02-20T04:15:38.183Z,109.03
2019-02-20T04:18:06.850Z,107.07
2019-02-20T04:20:35.553Z,109.10
2019-02-20T04:23:04.213Z,113.22
2019-02-20T04:25:32.858Z,113.62
2019-02-20T04:28:01.484Z,108.70
2019-02-20T04:30:30.131Z,112.25
2019-02-20T04:32:58.722Z,111.40
2019-02-20T04:35:27.353Z,112.72
2019-02-20T04:37:56.010Z,116.25
2019-02-20T04:40:24.650Z,124.45
2019-02-20T04:42:53.372Z,126.15
2019-02-20T04:45:22.025Z,127.65
2019-02-20T04:47:50.689Z,143.07
2019-02-20T04:50:19.388Z,142.60
2019-02-20T04:52:48.845Z,145.80
2019-02-20T04:55:17.494Z,157.15
2019-02-20T04:57:46.204Z,154.72
2019-02-20T05:00:14.861Z,154.87
2019-02-20T05:02:43.424Z,170.43
2019-02-20T05:05:12.104Z,164.80
2019-02-20T05:07:40.765Z,169.80
2019-02-20T05:10:10.504Z,168.95
2019-02-20T05:12:39.148Z,180.90
2019-02-20T05:15:07.723Z,182.95
2019-02-20T05:17:36.280Z,182.10
2019-02-20T05:20:07.971Z,180.30
2019-02-20T05:22:36.610Z,183.40
2019-02-20T05:25:05.672Z,184.52
2019-02-20T05:27:34.408Z,181.78
2019-02-20T05:30:03.059Z,189.67
2019-02-20T05:32:31.691Z,199.40
2019-02-20T05:35:00.523Z,194.77
2019-02-20T05:37:29.377Z,184.43
2019-02-20T05:39:57.951Z,176.42
2019-02-20T05:42:26.670Z,192.47
2019-02-20T05:44:55.320Z,188.18
2019-02-20T05:47:23.894Z,187.18
2019-02-20T05:49:52.600Z,185.25
2019-02-20T05:52:21.236Z,166.55
2019-02-20T05:54:50.766Z,186.95
2019-02-20T05:57:19.479Z,201.70
2019-02-20T05:59:48.032Z,171.68
2019-02-20T06:02:16.678Z,181.37
2019-02-20T06:04:45.318Z,170.55
2019-02-20T06:07:13.958Z,185.80
2019-02-20T06:09:42.531Z,156.82
2019-02-20T06:12:11.237Z,159.63
2019-02-20T06:14:39.879Z,172.43
2019-02-20T06:17:08.523Z,170.55
2019-02-20T06:19:37.210Z,180.12
2019-02-20T06:22:05.866Z,160.80
2019-02-20T06:24:43.656Z,148.30
2019-02-20T06:27:04.876Z,139.90
2019-02-20T06:29:33.451Z,142.95
2019-02-20T06:32:02.076Z,139.50
2019-02-20T06:34:30.797Z,145.75
2019-02-20T06:36:59.451Z,135.82
2019-02-20T06:39:28.082Z,146.25
2019-02-20T06:41:56.717Z,153.40
2019-02-20T06:44:25.303Z,154.12
2019-02-20T06:46:53.937Z,156.85
2019-02-20T06:49:22.625Z,157.67
2019-02-20T06:51:51.311Z,145.30
2019-02-20T06:54:19.903Z,160.10
2019-02-20T06:56:50.254Z,152.72
2019-02-20T06:59:19.033Z,146.62
2019-02-20T07:01:48.136Z,154.23
2019-02-20T07:04:16.814Z,146.05
2019-02-20T07:06:48.574Z,149.62
2019-02-20T07:09:53.260Z,143.52
2019-02-20T07:12:34.101Z,138.28
2019-02-20T07:15:14.731Z,132.32
2019-02-20T07:18:01.126Z,131.12
2019-02-20T07:20:49.407Z,137.37
2019-02-20T07:23:23.717Z,133.40
2019-02-20T07:26:12.115Z,138.85
2019-02-20T07:28:46.953Z,143.25
2019-02-20T07:31:15.665Z,139.05
2019-02-20T07:33:44.248Z,140.68
2019-02-20T07:36:12.900Z,142.87
2019-02-20T07:38:41.605Z,149.40
2019-02-20T07:41:10.294Z,154.63
2019-02-20T07:43:38.970Z,149.97
2019-02-20T07:46:07.687Z,154.80
2019-02-20T07:48:36.344Z,151.12
2019-02-20T07:51:05.009Z,147.90
2019-02-20T07:53:33.692Z,160.32
2019-02-20T07:56:02.328Z,157.88
2019-02-20T07:58:31.645Z,166.73
2019-02-20T08:01:01.891Z,150.62
2019-02-20T08:03:30.535Z,161.18
2019-02-20T08:05:59.198Z,177.87
2019-02-20T08:08:27.915Z,162.57
2019-02-20T08:10:56.583Z,162.07
2019-02-20T08:13:25.231Z,165.95
2019-02-20T08:15:53.944Z,181.95
2019-02-20T08:18:22.595Z,175.20
2019-02-20T08:20:51.234Z,184.87
2019-02-20T08:23:19.956Z,180.72
2019-02-20T08:25:48.617Z,176.82
2019-02-20T08:28:17.208Z,174.25
2019-02-20T08:30:45.820Z,180.87
2019-02-20T08:33:14.517Z,186.55
2019-02-20T08:35:43.099Z,186.57
2019-02-20T08:38:11.798Z,177.55
2019-02-20T08:40:40.434Z,179.30
2019-02-20T08:43:09.028Z,180.32
2019-02-20T08:45:37.639Z,191.12
2019-02-20T08:48:06.305Z,177.43
2019-02-20T08:50:34.937Z,190.18
2019-02-20T08:53:03.683Z,197.80
2019-02-20T08:55:32.535Z,190.82
2019-02-20T08:58:01.231Z,184.45
2019-02-20T09:00:30.756Z,178.72
2019-02-20T09:02:59.406Z,189.20
2019-02-20T09:05:27.979Z,196.32
2019-02-20T09:07:56.677Z,192.82
2019-02-20T09:10:25.359Z,188.93
2019-02-20T09:12:54.078Z,190.75
2019-02-20T09:15:22.687Z,192.92
2019-02-20T09:17:51.375Z,207.75
2019-02-20T09:20:20.097Z,199.65
2019-02-20T09:22:48.830Z,197.15
2019-02-20T09:25:19.860Z,191.10
2019-02-20T09:27:47.785Z,199.17
2019-02-20T09:30:16.583Z,199.23
2019-02-20T09:32:45.231Z,216.25
2019-02-20T09:35:13.894Z,215.12
2019-02-20T09:37:42.633Z,221.32
2019-02-20T09:40:14.400Z,230.90
2019-02-20T09:42:44.250Z,226.45
2019-02-20T09:45:12.883Z,221.25
2019-02-20T09:47:41.536Z,229.25
2019-02-20T09:50:10.298Z,226.18
2019-02-20T09:52:39.011Z,217.87
2019-02-20T09:55:10.459Z,215.25
2019-02-20T09:57:39.110Z,214.88
2019-02-20T10:00:16.322Z,216.55
2019-02-20T10:02:47.267Z,218.80
2019-02-20T10:05:15.819Z,214.80
2019-02-20T10:07:44.517Z,210.25
2019-02-20T10:10:13.364Z,205.77
2019-02-20T10:12:42.048Z,209.72
2019-02-20T10:15:13.551Z,205.52
2019-02-20T10:17:42.225Z,194.13
2019-02-20T10:20:11.470Z,195.53
2019-02-20T10:22:40.199Z,213.25
2019-02-20T10:25:13.142Z,202.13
2019-02-20T10:27:41.791Z,208.78
2019-02-20T10:30:13.276Z,211.15
2019-02-20T10:32:41.918Z,207.32
2019-02-20T10:35:10.978Z,208.60
2019-02-20T10:37:39.903Z,207.22
2019-02-20T10:40:10.116Z,196.90
2019-02-20T10:42:38.763Z,201.25
2019-02-20T10:45:12.476Z,191.75
2019-02-20T10:47:41.038Z,201.42
2019-02-20T10:50:11.612Z,191.57
2019-02-20T10:52:40.314Z,203.98
2019-02-20T10:55:09.767Z,194.77
2019-02-20T10:57:38.418Z,192.62
2019-02-20T11:00:23.385Z,203.47
2019-02-20T11:02:46.539Z,192.15
2019-02-20T11:05:15.266Z,188.72
2019-02-20T11:07:43.915Z,190.35
2019-02-20T11:10:12.564Z,197.35
2019-02-20T11:12:41.227Z,189.13
2019-02-20T11:15:09.930Z,182.17
2019-02-20T11:17:38.582Z,175.95
2019-02-20T11:20:10.038Z,194.95
2019-02-20T11:22:38.747Z,189.93
2019-02-20T11:25:10.109Z,190.50
2019-02-20T11:27:40.326Z,186.90
2019-02-20T11:30:14.649Z,190.00
2019-02-20T11:32:43.316Z,187.37
2019-02-20T11:35:11.966Z,182.00
2019-02-20T11:37:40.685Z,176.57
2019-02-20T11:40:10.233Z,176.45
2019-02-20T11:42:38.897Z,187.20
2019-02-20T11:45:10.702Z,179.68
2019-02-20T11:47:39.349Z,181.80
2019-02-20T11:50:09.618Z,179.80
2019-02-20T11:52:38.733Z,174.95
2019-02-20T11:55:12.420Z,172.07
2019-02-20T11:57:41.088Z,171.22
2019-02-20T12:00:14.829Z,169.82
2019-02-20T12:02:43.466Z,169.40
2019-02-20T12:05:12.106Z,168.95
2019-02-20T12:07:40.869Z,165.18
2019-02-20T12:10:15.364Z,171.07
2019-02-20T12:12:43.918Z,166.32
2019-02-20T12:15:12.645Z,153.60
2019-02-20T12:17:41.297Z,163.75
2019-02-20T12:20:09.879Z,161.75
2019-02-20T12:22:38.574Z,170.07
2019-02-20T12:25:09.026Z,162.20
2019-02-20T12:27:37.668Z,158.35
2019-02-20T12:30:11.301Z,165.97
2019-02-20T12:32:39.889Z,161.73
2019-02-20T12:35:09.324Z,155.65
2019-02-20T12:37:38.032Z,153.82
2019-02-20T12:40:10.893Z,158.72
2019-02-20T12:42:39.552Z,161.12
2019-02-20T12:45:09.281Z,160.65
2019-02-20T12:47:37.857Z,166.05
2019-02-20T12:50:09.568Z,163.07
2019-02-20T12:52:38.270Z,165.40
2019-02-20T12:55:07.722Z,174.23
2019-02-20T12:57:36.407Z,162.90
2019-02-20T13:00:11.052Z,157.70
2019-02-20T13:02:39.701Z,160.45
2019-02-20T13:05:08.449Z,161.57
2019-02-20T13:07:37.176Z,167.93
2019-02-20T13:10:07.420Z,166.75
2019-02-20T13:12:36.066Z,167.75
2019-02-20T13:15:06.966Z,157.30
2019-02-20T13:17:35.633Z,157.90
2019-02-20T13:20:04.693Z,161.47
2019-02-20T13:22:33.398Z,159.07
2019-02-20T13:25:04.014Z,144.45
2019-02-20T13:27:32.342Z,162.43
2019-02-20T13:30:00.986Z,149.65
2019-02-20T13:32:29.621Z,164.28
2019-02-20T13:34:58.192Z,154.53
2019-02-20T13:37:26.885Z,144.17
2019-02-20T13:39:55.481Z,155.95
2019-02-20T13:42:24.118Z,148.00
2019-02-20T13:44:53.873Z,145.97
2019-02-20T13:47:22.714Z,153.75
2019-02-20T13:49:51.380Z,150.87
2019-02-20T13:52:20.017Z,146.93
2019-02-20T13:54:48.673Z,162.45
2019-02-20T13:57:17.713Z,150.30
2019-02-20T13:59:46.405Z,150.07
2019-02-20T14:02:15.054Z,149.65
2019-02-20T14:04:43.718Z,151.65
2019-02-20T14:07:12.410Z,142.30
2019-02-20T14:09:40.978Z,141.50
2019-02-20T14:12:09.583Z,151.80
2019-02-20T14:14:38.901Z,149.95
2019-02-20T14:17:07.550Z,138.28
2019-02-20T14:19:36.208Z,156.85
2019-02-20T14:22:04.910Z,148.57
2019-02-20T14:24:33.576Z,141.25
2019-02-20T14:27:10.231Z,145.57
2019-02-20T14:29:32.497Z,154.20
2019-02-20T14:32:01.163Z,151.22
2019-02-20T14:34:29.657Z,156.97
2019-02-20T14:36:58.359Z,141.80
2019-02-20T14:39:27.019Z,141.97
2019-02-20T14:41:55.657Z,145.22
2019-02-20T14:44:24.357Z,148.35
2019-02-20T14:46:53.534Z,147.00
2019-02-20T14:49:22.194Z,150.07
2019-02-20T14:51:50.876Z,154.95
2019-02-20T14:54:19.542Z,148.70
2019-02-20T14:56:48.196Z,140.73
2019-02-20T14:59:16.830Z,147.68
2019-02-20T15:01:45.480Z,144.50
2019-02-20T15:04:14.140Z,153.27
2019-02-20T15:06:42.847Z,154.03
2019-02-20T15:09:11.408Z,141.32
2019-02-20T15:11:40.054Z,155.37
2019-02-20T15:14:09.746Z,154.70
2019-02-20T15:16:38.326Z,148.45
2019-02-20T15:19:07.366Z,149.20
2019-02-20T15:21:36.005Z,142.53
2019-02-20T15:24:04.654Z,150.03
2019-02-20T15:26:33.326Z,150.20
2019-02-20T15:29:01.956Z,149.82
2019-02-20T15:31:33.795Z,140.75
2019-02-20T15:34:00.929Z,154.72
2019-02-20T15:36:29.559Z,147.30
2019-02-20T15:38:58.216Z,152.30
2019-02-20T15:41:26.856Z,151.68
2019-02-20T15:43:55.551Z,151.27
2019-02-20T15:46:24.120Z,148.68
2019-02-20T15:48:52.760Z,151.80
2019-02-20T15:51:21.893Z,166.10
2019-02-20T15:53:50.520Z,154.87
2019-02-20T15:56:19.161Z,152.32
2019-02-20T15:58:47.870Z,159.12
2019-02-20T16:01:16.526Z,160.45
2019-02-20T16:03:45.163Z,152.20
2019-02-20T16:06:13.866Z,159.03
2019-02-20T16:08:42.928Z,148.43
2019-02-20T16:11:11.584Z,155.25
2019-02-20T16:13:41.855Z,154.03
2019-02-20T16:16:11.326Z,149.02
2019-02-20T16:18:39.966Z,155.45
2019-02-20T16:21:10.888Z,163.52
2019-02-20T16:23:42.632Z,155.95
2019-02-20T16:26:14.336Z,164.47
2019-02-20T16:28:43.051Z,168.57
2019-02-20T16:31:11.700Z,148.70
2019-02-20T16:33:41.850Z,159.37
2019-02-20T16:36:10.535Z,160.90
2019-02-20T16:38:39.790Z,161.55
2019-02-20T16:41:08.431Z,157.90
2019-02-20T16:43:37.131Z,157.78
2019-02-20T16:46:05.731Z,156.90
2019-02-20T16:48:34.362Z,160.22
2019-02-20T16:51:03.057Z,168.78
2019-02-20T16:53:31.709Z,164.45
2019-02-20T16:56:00.871Z,159.55
2019-02-20T16:58:29.484Z,166.12
2019-02-20T17:00:58.134Z,151.37
2019-02-20T17:03:26.786Z,163.45
2019-02-20T17:05:55.472Z,157.52
2019-02-20T17:08:24.136Z,166.55
2019-02-20T17:10:53.206Z,166.32
2019-02-20T17:13:21.904Z,168.07
2019-02-20T17:15:50.550Z,163.50
2019-02-20T17:18:19.186Z,164.30
2019-02-20T17:20:47.826Z,167.37
2019-02-20T17:23:16.460Z,167.35
2019-02-20T17:25:45.099Z,168.47
2019-02-20T17:28:14.108Z,172.32
2019-02-20T17:30:42.736Z,174.32
2019-02-20T17:33:11.390Z,168.82
2019-02-20T17:35:40.081Z,186.77
2019-02-20T17:38:08.746Z,187.85
2019-02-20T17:40:37.387Z,170.30
2019-02-20T17:43:06.908Z,176.02
2019-02-20T17:45:35.824Z,183.93
2019-02-20T17:48:04.475Z,175.53
2019-02-20T17:50:33.181Z,175.75
2019-02-20T17:53:01.736Z,176.50
2019-02-20T17:55:30.407Z,177.68
2019-02-20T17:57:59.024Z,183.40
2019-02-20T18:00:33.127Z,180.30
2019-02-20T18:03:01.774Z,203.05
2019-02-20T18:05:30.867Z,185.40
2019-02-20T18:07:59.510Z,189.62
2019-02-20T18:10:28.071Z,175.57
2019-02-20T18:12:56.780Z,183.45
2019-02-20T18:15:25.360Z,194.07
2019-02-20T18:17:54.056Z,193.02
2019-02-20T18:20:22.771Z,188.93
2019-02-20T18:22:51.336Z,191.18
2019-02-20T18:25:19.982Z,194.02
2019-02-20T18:27:48.688Z,189.57
2019-02-20T18:30:17.330Z,193.52
2019-02-20T18:32:45.993Z,200.75
2019-02-20T18:35:17.260Z,191.53
2019-02-20T18:37:45.902Z,195.50
2019-02-20T18:40:17.010Z,197.62
2019-02-20T18:42:45.708Z,205.85
2019-02-20T18:45:16.003Z,198.82
2019-02-20T18:47:44.880Z,189.87
2019-02-20T18:50:14.903Z,195.80
2019-02-20T18:52:43.547Z,193.90
2019-02-20T18:55:15.145Z,196.37
2019-02-20T18:57:43.837Z,198.95
2019-02-20T19:00:19.974Z,189.10
2019-02-20T19:02:48.654Z,183.03
2019-02-20T19:05:18.895Z,205.22
2019-02-20T19:07:47.660Z,200.38
2019-02-20T19:10:22.144Z,211.52
2019-02-20T19:13:05.789Z,197.32
2019-02-20T19:15:43.312Z,205.22
2019-02-20T19:18:29.831Z,203.32
2019-02-20T19:21:20.827Z,195.87
2019-02-20T19:24:24.216Z,189.95
2019-02-20T19:27:02.092Z,208.80
2019-02-20T19:29:53.409Z,203.35
2019-02-20T19:32:40.320Z,201.00
2019-02-20T19:35:33.089Z,195.90
2019-02-20T19:38:13.860Z,195.60
2019-02-20T19:41:04.942Z,187.35
2019-02-20T19:43:42.650Z,203.70
2019-02-20T19:46:26.315Z,204.93
2019-02-20T19:49:06.994Z,206.57
2019-02-20T19:51:41.574Z,206.55
2019-02-20T19:54:19.160Z,200.80
2019-02-20T19:57:00.051Z,206.32
2019-02-20T19:59:37.458Z,198.53
2019-02-20T20:02:09.199Z,203.02
2019-02-20T20:04:49.637Z,201.88
2019-02-20T20:07:49.182Z,192.37
2019-02-20T20:10:23.684Z,201.60
2019-02-20T20:13:07.347Z,202.28
2019-02-20T20:15:53.994Z,195.97
2019-02-20T20:18:31.683Z,204.03
2019-02-20T20:21:06.476Z,198.35
2019-02-20T20:23:44.413Z,187.27
2019-02-20T20:26:22.505Z,198.97
2019-02-20T20:29:05.860Z,205.70
2019-02-20T20:31:36.499Z,201.73
2019-02-20T20:34:26.210Z,199.42
2019-02-20T20:36:58.037Z,202.18
2019-02-20T20:39:46.381Z,203.07
2019-02-20T20:42:48.780Z,200.43
2019-02-20T20:45:23.490Z,203.42
2019-02-20T20:48:12.081Z,207.22
2019-02-20T20:51:00.259Z,202.32
2019-02-20T20:53:52.990Z,194.13
2019-02-20T20:56:24.740Z,189.07
2019-02-20T20:59:02.256Z,189.90
2019-02-20T21:01:43.022Z,194.65
2019-02-20T21:04:32.653Z,197.02
2019-02-20T21:07:33.215Z,188.47
2019-02-20T21:10:13.822Z,197.78
2019-02-20T21:13:01.029Z,194.15
2019-02-20T21:15:52.500Z,199.20
2019-02-20T21:18:36.160Z,203.73
2019-02-20T21:21:22.832Z,201.92
2019-02-20T21:23:57.189Z,186.30
2019-02-20T21:26:31.561Z,198.82
2019-02-20T21:29:09.127Z,195.87
2019-02-20T21:32:00.844Z,177.97
2019-02-20T21:34:56.587Z,184.33
2019-02-20T21:37:45.054Z,188.97
2019-02-20T21:40:33.280Z,179.55
2019-02-20T21:43:26.166Z,173.20
2019-02-20T21:46:31.354Z,175.82
2019-02-20T21:49:15.339Z,166.50
2019-02-20T21:52:01.924Z,192.35
2019-02-20T21:54:39.452Z,188.03
2019-02-20T21:57:29.359Z,188.52
2019-02-20T22:00:17.796Z,181.90
2019-02-20T22:02:58.577Z,184.93
2019-02-20T22:05:42.325Z,196.60
2019-02-20T22:08:35.184Z,193.57
2019-02-20T22:11:12.527Z,180.15
2019-02-20T22:14:20.360Z,176.90
2019-02-20T22:17:14.716Z,182.07
2019-02-20T22:20:01.386Z,182.40
2019-02-20T22:22:54.015Z,184.95
2019-02-20T22:25:55.806Z,192.82
2019-02-20T22:28:27.630Z,191.40
2019-02-20T22:30:59.395Z,186.25
2019-02-20T22:33:31.197Z,172.28
2019-02-20T22:36:37.788Z,185.70
2019-02-20T22:39:30.514Z,186.15
2019-02-20T22:42:25.394Z,195.57
2019-02-20T22:45:09.053Z,185.45
2019-02-20T22:47:58.549Z,171.13
2019-02-20T22:50:39.103Z,195.10
2019-02-20T22:53:10.853Z,191.50
2019-02-20T22:55:54.335Z,173.55
2019-02-20T22:58:28.716Z,195.32
2019-02-20T23:01:24.494Z,193.22
2019-02-20T23:04:08.447Z,176.53
2019-02-20T23:06:49.000Z,195.82
2019-02-20T23:09:32.358Z,189.37
2019-02-20T23:12:12.657Z,185.55
2019-02-20T23:14:58.330Z,176.70
2019-02-20T23:17:28.236Z,190.20
2019-02-20T23:19:57.000Z,178.97
2019-02-20T23:22:25.645Z,191.45
2019-02-20T23:24:54.352Z,186.88
2019-02-20T23:27:23.003Z,197.02
2019-02-20T23:29:51.654Z,189.60
2019-02-20T23:32:20.367Z,174.05
2019-02-20T23:34:49.016Z,178.87
2019-02-20T23:37:17.664Z,178.07
2019-02-20T23:39:46.360Z,182.40
2019-02-20T23:42:15.014Z,173.62
2019-02-20T23:44:43.608Z,167.45
2019-02-20T23:47:12.306Z,177.95
2019-02-20T23:49:40.877Z,173.53
2019-02-20T23:52:09.571Z,187.12
2019-02-20T23:54:38.262Z,180.80
2019-02-20T23:57:06.916Z,173.30
2019-02-20T23:59:35.577Z,178.82
